EZY816K EGNM-EGAA
Flight info
| Callsign | EZY816K |
|---|---|
| Flight time | 0h 41m |
| Altitude | 24000 |
| Route | NELSA DCT CROFT Y70 KOLID L70 GUNTU Z196 DIGMA M146 IPSET P6 BELZU |
| Aircraft | A319/M-SDE3FGHIRWY/LB1 |
Departure
| Time | 2026-05-05 17:14 |
|---|---|
| Airport | Leeds Bradford Airport (EGNM) |
Arrival
| Time | 2026-05-05 17:55 |
|---|---|
| Airport | Belfast International Airport (EGAA) |
| Time | Latitude | Longitude | Altitude | Speed | Heading |
|---|---|---|---|---|---|
| 2026-05-05 16:46 | 53.86883 | -1.65689 | 665 ft | 0 kts | 1° |
| 2026-05-05 16:46 | 53.86879 | -1.65690 | 665 ft | 0 kts | 1° |
| 2026-05-05 17:04 | 53.86866 | -1.65690 | 665 ft | 4 kts | 1° |
| 2026-05-05 17:04 | 53.86844 | -1.65691 | 665 ft | 3 kts | 1° |
| 2026-05-05 17:05 | 53.86822 | -1.65699 | 662 ft | 4 kts | 53° |
| 2026-05-05 17:05 | 53.86817 | -1.65734 | 665 ft | 4 kts | 87° |
| 2026-05-05 17:05 | 53.86813 | -1.65777 | 664 ft | 4 kts | 79° |
| 2026-05-05 17:05 | 53.86812 | -1.65812 | 663 ft | 4 kts | 92° |
| 2026-05-05 17:06 | 53.86812 | -1.65848 | 663 ft | 0 kts | 91° |
| 2026-05-05 17:08 | 53.86812 | -1.65846 | 663 ft | 0 kts | 91° |
| 2026-05-05 17:08 | 53.86812 | -1.65815 | 663 ft | 4 kts | 91° |
| 2026-05-05 17:08 | 53.86803 | -1.65765 | 664 ft | 5 kts | 136° |
| 2026-05-05 17:09 | 53.86765 | -1.65757 | 666 ft | 7 kts | 168° |
| 2026-05-05 17:09 | 53.86740 | -1.65674 | 665 ft | 9 kts | 91° |
| 2026-05-05 17:09 | 53.86739 | -1.65556 | 665 ft | 11 kts | 91° |
| 2026-05-05 17:09 | 53.86732 | -1.65438 | 662 ft | 9 kts | 119° |
| 2026-05-05 17:10 | 53.86671 | -1.65423 | 662 ft | 9 kts | 182° |
| 2026-05-05 17:10 | 53.86610 | -1.65428 | 664 ft | 9 kts | 184° |
| 2026-05-05 17:10 | 53.86543 | -1.65435 | 667 ft | 11 kts | 183° |
| 2026-05-05 17:10 | 53.86455 | -1.65444 | 671 ft | 13 kts | 184° |
| 2026-05-05 17:11 | 53.86384 | -1.65451 | 677 ft | 9 kts | 183° |
| 2026-05-05 17:11 | 53.86314 | -1.65457 | 677 ft | 12 kts | 183° |
| 2026-05-05 17:11 | 53.86235 | -1.65465 | 680 ft | 12 kts | 182° |
| 2026-05-05 17:11 | 53.86163 | -1.65399 | 681 ft | 13 kts | 139° |
| 2026-05-05 17:12 | 53.86086 | -1.65281 | 678 ft | 17 kts | 138° |
| 2026-05-05 17:12 | 53.85989 | -1.65132 | 672 ft | 21 kts | 138° |
| 2026-05-05 17:12 | 53.85921 | -1.65002 | 666 ft | 13 kts | 109° |
| 2026-05-05 17:12 | 53.85888 | -1.64906 | 665 ft | 9 kts | 167° |
| 2026-05-05 17:13 | 53.85878 | -1.64981 | 662 ft | 9 kts | 327° |
| 2026-05-05 17:13 | 53.85929 | -1.65039 | 667 ft | 15 kts | 319° |
| 2026-05-05 17:13 | 53.86209 | -1.65469 | 680 ft | 91 kts | 317° |
| 2026-05-05 17:13 | 53.86820 | -1.66406 | 690 ft | 149 kts | 319° |
| 2026-05-05 17:14 | 53.87592 | -1.67585 | 1373 ft | 148 kts | 322° |
| 2026-05-05 17:14 | 53.88336 | -1.68852 | 1996 ft | 160 kts | 317° |
| 2026-05-05 17:14 | 53.89112 | -1.70362 | 2479 ft | 179 kts | 315° |
| 2026-05-05 17:14 | 53.89953 | -1.72073 | 2943 ft | 201 kts | 308° |
| 2026-05-05 17:15 | 53.90301 | -1.74505 | 3426 ft | 228 kts | 269° |
| 2026-05-05 17:15 | 53.89997 | -1.77222 | 4116 ft | 247 kts | 253° |
| 2026-05-05 17:15 | 53.89240 | -1.79968 | 4765 ft | 266 kts | 238° |
| 2026-05-05 17:15 | 53.88085 | -1.82454 | 5753 ft | 270 kts | 230° |
| 2026-05-05 17:16 | 53.86878 | -1.84889 | 6846 ft | 270 kts | 231° |
| 2026-05-05 17:16 | 53.85685 | -1.87356 | 7824 ft | 272 kts | 232° |
| 2026-05-05 17:16 | 53.84542 | -1.89934 | 8729 ft | 276 kts | 243° |
| 2026-05-05 17:16 | 53.83968 | -1.93018 | 9603 ft | 278 kts | 266° |
| 2026-05-05 17:17 | 53.84176 | -1.96255 | 10458 ft | 279 kts | 290° |
| 2026-05-05 17:17 | 53.85034 | -1.99196 | 11071 ft | 292 kts | 299° |
| 2026-05-05 17:17 | 53.85895 | -2.02456 | 11383 ft | 315 kts | 286° |
| 2026-05-05 17:17 | 53.86198 | -2.06249 | 12008 ft | 326 kts | 273° |
| 2026-05-05 17:18 | 53.86195 | -2.10068 | 12771 ft | 331 kts | 269° |
| 2026-05-05 17:18 | 53.85994 | -2.14021 | 13623 ft | 335 kts | 262° |
| 2026-05-05 17:18 | 53.85400 | -2.17808 | 14310 ft | 341 kts | 250° |
| 2026-05-05 17:18 | 53.84239 | -2.21338 | 15020 ft | 347 kts | 234° |
| 2026-05-05 17:19 | 53.82544 | -2.24292 | 15743 ft | 353 kts | 223° |
| 2026-05-05 17:19 | 53.80703 | -2.27023 | 16474 ft | 355 kts | 223° |
| 2026-05-05 17:19 | 53.78836 | -2.29791 | 17197 ft | 358 kts | 223° |
| 2026-05-05 17:19 | 53.76957 | -2.32583 | 17916 ft | 361 kts | 223° |
| 2026-05-05 17:20 | 53.75066 | -2.35406 | 18592 ft | 364 kts | 224° |
| 2026-05-05 17:20 | 53.73164 | -2.38253 | 19215 ft | 367 kts | 224° |
| 2026-05-05 17:20 | 53.71248 | -2.41119 | 19809 ft | 370 kts | 223° |
| 2026-05-05 17:20 | 53.69317 | -2.44003 | 20425 ft | 373 kts | 223° |
| 2026-05-05 17:21 | 53.67365 | -2.46914 | 21047 ft | 376 kts | 223° |
| 2026-05-05 17:21 | 53.65404 | -2.49845 | 21663 ft | 378 kts | 223° |
| 2026-05-05 17:21 | 53.63564 | -2.53031 | 22266 ft | 380 kts | 232° |
| 2026-05-05 17:22 | 53.60995 | -2.60818 | 23425 ft | 385 kts | 248° |
| 2026-05-05 17:22 | 53.59974 | -2.65000 | 23875 ft | 388 kts | 248° |
| 2026-05-05 17:22 | 53.58944 | -2.69193 | 24003 ft | 388 kts | 248° |
| 2026-05-05 17:22 | 53.58057 | -2.73439 | 24034 ft | 383 kts | 256° |
| 2026-05-05 17:23 | 53.57644 | -2.77851 | 24037 ft | 382 kts | 266° |
| 2026-05-05 17:23 | 53.57713 | -2.82290 | 24036 ft | 382 kts | 275° |
| 2026-05-05 17:23 | 53.57953 | -2.86757 | 24038 ft | 382 kts | 274° |
| 2026-05-05 17:23 | 53.58180 | -2.91215 | 24044 ft | 382 kts | 274° |
| 2026-05-05 17:24 | 53.58394 | -2.95666 | 24045 ft | 382 kts | 274° |
| 2026-05-05 17:24 | 53.58605 | -3.00120 | 24043 ft | 382 kts | 274° |
| 2026-05-05 17:24 | 53.58814 | -3.04567 | 24044 ft | 382 kts | 274° |
| 2026-05-05 17:24 | 53.59020 | -3.09024 | 24044 ft | 382 kts | 274° |
| 2026-05-05 17:25 | 53.59227 | -3.13475 | 24048 ft | 382 kts | 274° |
| 2026-05-05 17:25 | 53.59392 | -3.16423 | 24050 ft | 382 kts | 277° |
| 2026-05-05 17:25 | 53.60092 | -3.22286 | 24051 ft | 382 kts | 281° |
| 2026-05-05 17:25 | 53.60642 | -3.26663 | 24059 ft | 382 kts | 281° |
| 2026-05-05 17:26 | 53.61186 | -3.31031 | 24057 ft | 382 kts | 281° |
| 2026-05-05 17:26 | 53.61728 | -3.35410 | 24057 ft | 382 kts | 281° |
| 2026-05-05 17:26 | 53.62267 | -3.39783 | 24055 ft | 381 kts | 281° |
| 2026-05-05 17:26 | 53.62800 | -3.44157 | 24055 ft | 381 kts | 280° |
| 2026-05-05 17:27 | 53.63322 | -3.48479 | 24053 ft | 381 kts | 280° |
| 2026-05-05 17:27 | 53.63849 | -3.52850 | 24052 ft | 381 kts | 280° |
| 2026-05-05 17:27 | 53.64380 | -3.57231 | 24048 ft | 381 kts | 281° |
| 2026-05-05 17:27 | 53.65133 | -3.61511 | 24047 ft | 382 kts | 290° |
| 2026-05-05 17:28 | 53.66340 | -3.65512 | 24050 ft | 384 kts | 300° |
| 2026-05-05 17:28 | 53.67874 | -3.69214 | 24052 ft | 385 kts | 303° |
| 2026-05-05 17:28 | 53.69425 | -3.72895 | 24072 ft | 385 kts | 303° |
| 2026-05-05 17:28 | 53.70967 | -3.76579 | 24071 ft | 384 kts | 303° |
| 2026-05-05 17:29 | 53.72504 | -3.80268 | 24067 ft | 384 kts | 303° |
| 2026-05-05 17:29 | 53.74038 | -3.83960 | 24065 ft | 384 kts | 303° |
| 2026-05-05 17:29 | 53.75568 | -3.87648 | 24063 ft | 383 kts | 303° |
| 2026-05-05 17:29 | 53.77098 | -3.91334 | 24060 ft | 383 kts | 303° |
| 2026-05-05 17:30 | 53.78626 | -3.95021 | 24058 ft | 383 kts | 302° |
| 2026-05-05 17:30 | 53.80153 | -3.98714 | 24055 ft | 383 kts | 302° |
| 2026-05-05 17:30 | 53.81674 | -4.02405 | 24053 ft | 383 kts | 302° |
| 2026-05-05 17:30 | 53.83196 | -4.06101 | 24051 ft | 382 kts | 302° |
| 2026-05-05 17:31 | 53.84714 | -4.09798 | 24051 ft | 382 kts | 302° |
| 2026-05-05 17:31 | 53.86232 | -4.13493 | 24048 ft | 382 kts | 302° |
| 2026-05-05 17:31 | 53.87751 | -4.17192 | 24047 ft | 382 kts | 302° |
| 2026-05-05 17:31 | 53.89273 | -4.20892 | 24047 ft | 382 kts | 303° |
| 2026-05-05 17:32 | 53.90787 | -4.24588 | 24049 ft | 382 kts | 303° |
| 2026-05-05 17:32 | 53.92300 | -4.28299 | 24067 ft | 382 kts | 303° |
| 2026-05-05 17:32 | 53.93807 | -4.32001 | 24070 ft | 382 kts | 303° |
| 2026-05-05 17:32 | 53.95316 | -4.35706 | 24064 ft | 382 kts | 303° |
| 2026-05-05 17:33 | 53.96827 | -4.39412 | 24064 ft | 382 kts | 303° |
| 2026-05-05 17:33 | 53.98336 | -4.43123 | 24065 ft | 381 kts | 303° |
| 2026-05-05 17:33 | 53.99841 | -4.46830 | 24062 ft | 381 kts | 303° |
| 2026-05-05 17:33 | 54.01349 | -4.50544 | 24063 ft | 381 kts | 304° |
| 2026-05-05 17:34 | 54.03040 | -4.54024 | 24059 ft | 383 kts | 311° |
| 2026-05-05 17:34 | 54.04806 | -4.57301 | 24058 ft | 383 kts | 311° |
| 2026-05-05 17:34 | 54.06636 | -4.60699 | 24057 ft | 383 kts | 311° |
| 2026-05-05 17:34 | 54.08413 | -4.63995 | 24056 ft | 383 kts | 311° |
| 2026-05-05 17:35 | 54.10215 | -4.67336 | 24055 ft | 383 kts | 311° |
| 2026-05-05 17:35 | 54.12014 | -4.70681 | 24050 ft | 383 kts | 310° |
| 2026-05-05 17:35 | 54.13808 | -4.74026 | 24049 ft | 383 kts | 310° |
| 2026-05-05 17:35 | 54.15602 | -4.77381 | 24058 ft | 383 kts | 310° |
| 2026-05-05 17:36 | 54.17393 | -4.80739 | 24053 ft | 383 kts | 310° |
| 2026-05-05 17:36 | 54.19180 | -4.84092 | 23946 ft | 380 kts | 310° |
| 2026-05-05 17:36 | 54.20947 | -4.87406 | 23713 ft | 375 kts | 310° |
| 2026-05-05 17:36 | 54.22686 | -4.90673 | 23398 ft | 369 kts | 310° |
| 2026-05-05 17:37 | 54.24400 | -4.93898 | 22964 ft | 364 kts | 310° |
| 2026-05-05 17:37 | 54.25520 | -4.96006 | 22683 ft | 361 kts | 310° |
| 2026-05-05 17:37 | 54.27758 | -5.00227 | 22117 ft | 355 kts | 310° |
| 2026-05-05 17:37 | 54.29403 | -5.03331 | 21694 ft | 350 kts | 310° |
| 2026-05-05 17:38 | 54.31029 | -5.06401 | 21279 ft | 346 kts | 310° |
| 2026-05-05 17:38 | 54.32636 | -5.09446 | 20853 ft | 343 kts | 310° |
| 2026-05-05 17:38 | 54.34223 | -5.12463 | 20443 ft | 339 kts | 310° |
| 2026-05-05 17:38 | 54.35793 | -5.15454 | 20018 ft | 336 kts | 310° |
| 2026-05-05 17:39 | 54.37353 | -5.18425 | 19581 ft | 334 kts | 310° |
| 2026-05-05 17:39 | 54.38903 | -5.21373 | 19165 ft | 332 kts | 310° |
| 2026-05-05 17:39 | 54.40441 | -5.24307 | 18726 ft | 330 kts | 310° |
| 2026-05-05 17:39 | 54.41967 | -5.27231 | 18299 ft | 329 kts | 310° |
| 2026-05-05 17:40 | 54.43491 | -5.30151 | 17842 ft | 326 kts | 310° |
| 2026-05-05 17:40 | 54.45000 | -5.33036 | 17420 ft | 323 kts | 310° |
| 2026-05-05 17:40 | 54.46515 | -5.35870 | 16983 ft | 321 kts | 311° |
| 2026-05-05 17:40 | 54.48054 | -5.38641 | 16551 ft | 320 kts | 313° |
| 2026-05-05 17:41 | 54.49600 | -5.41372 | 16121 ft | 318 kts | 313° |
| 2026-05-05 17:41 | 54.51066 | -5.44201 | 15697 ft | 316 kts | 305° |
| 2026-05-05 17:41 | 54.52163 | -5.47390 | 15275 ft | 313 kts | 294° |
| 2026-05-05 17:41 | 54.52906 | -5.50955 | 14859 ft | 312 kts | 287° |
| 2026-05-05 17:42 | 54.53555 | -5.54460 | 14448 ft | 311 kts | 287° |
| 2026-05-05 17:42 | 54.54208 | -5.57980 | 14032 ft | 310 kts | 288° |
| 2026-05-05 17:42 | 54.54863 | -5.61516 | 13580 ft | 309 kts | 287° |
| 2026-05-05 17:42 | 54.55248 | -5.65170 | 13106 ft | 313 kts | 270° |
| 2026-05-05 17:43 | 54.55049 | -5.68906 | 12584 ft | 313 kts | 264° |
| 2026-05-05 17:43 | 54.54774 | -5.72620 | 12086 ft | 313 kts | 264° |
| 2026-05-05 17:43 | 54.54492 | -5.76325 | 11620 ft | 311 kts | 264° |
| 2026-05-05 17:43 | 54.54205 | -5.80018 | 11151 ft | 310 kts | 264° |
| 2026-05-05 17:44 | 54.53917 | -5.83688 | 10700 ft | 309 kts | 264° |
| 2026-05-05 17:44 | 54.53627 | -5.87329 | 10417 ft | 302 kts | 264° |
| 2026-05-05 17:44 | 54.53438 | -5.89674 | 10326 ft | 294 kts | 264° |
| 2026-05-05 17:44 | 54.53156 | -5.93142 | 10195 ft | 283 kts | 264° |
| 2026-05-05 17:45 | 54.52887 | -5.96419 | 9940 ft | 278 kts | 264° |
| 2026-05-05 17:45 | 54.52611 | -5.99703 | 9564 ft | 276 kts | 264° |
| 2026-05-05 17:45 | 54.52336 | -6.02958 | 9180 ft | 274 kts | 264° |
| 2026-05-05 17:45 | 54.52054 | -6.06198 | 8781 ft | 273 kts | 263° |
| 2026-05-05 17:46 | 54.51785 | -6.09431 | 8355 ft | 272 kts | 266° |
| 2026-05-05 17:46 | 54.51838 | -6.12650 | 7945 ft | 268 kts | 278° |
| 2026-05-05 17:46 | 54.52045 | -6.15844 | 7522 ft | 269 kts | 278° |
| 2026-05-05 17:46 | 54.52265 | -6.19039 | 7155 ft | 268 kts | 278° |
| 2026-05-05 17:47 | 54.52480 | -6.22204 | 6889 ft | 263 kts | 278° |
| 2026-05-05 17:47 | 54.52681 | -6.25276 | 6765 ft | 253 kts | 279° |
| 2026-05-05 17:47 | 54.52865 | -6.28227 | 6641 ft | 243 kts | 278° |
| 2026-05-05 17:47 | 54.53045 | -6.31064 | 6383 ft | 235 kts | 278° |
| 2026-05-05 17:48 | 54.53219 | -6.33845 | 5917 ft | 232 kts | 279° |
| 2026-05-05 17:48 | 54.53375 | -6.36595 | 5454 ft | 230 kts | 278° |
| 2026-05-05 17:48 | 54.53536 | -6.39332 | 4991 ft | 228 kts | 279° |
| 2026-05-05 17:48 | 54.53683 | -6.42039 | 4531 ft | 227 kts | 278° |
| 2026-05-05 17:49 | 54.53830 | -6.44735 | 4054 ft | 225 kts | 278° |
| 2026-05-05 17:49 | 54.53971 | -6.47360 | 3820 ft | 213 kts | 278° |
| 2026-05-05 17:49 | 54.54241 | -6.49752 | 3667 ft | 193 kts | 301° |
| 2026-05-05 17:49 | 54.55123 | -6.51225 | 3511 ft | 173 kts | 339° |
| 2026-05-05 17:50 | 54.56292 | -6.51294 | 3235 ft | 170 kts | 12° |
| 2026-05-05 17:50 | 54.57425 | -6.50678 | 2928 ft | 172 kts | 17° |
| 2026-05-05 17:50 | 54.58510 | -6.49854 | 2617 ft | 173 kts | 33° |
| 2026-05-05 17:50 | 54.59140 | -6.48071 | 2347 ft | 181 kts | 73° |
| 2026-05-05 17:51 | 54.59158 | -6.45876 | 2308 ft | 184 kts | 87° |
| 2026-05-05 17:51 | 54.59347 | -6.43845 | 2318 ft | 165 kts | 62° |
| 2026-05-05 17:51 | 54.59844 | -6.42110 | 2519 ft | 161 kts | 55° |
| 2026-05-05 17:51 | 54.60449 | -6.40498 | 2566 ft | 160 kts | 51° |
| 2026-05-05 17:52 | 54.61049 | -6.38920 | 2436 ft | 150 kts | 54° |
| 2026-05-05 17:52 | 54.61449 | -6.37340 | 2166 ft | 139 kts | 64° |
| 2026-05-05 17:52 | 54.61811 | -6.35846 | 1930 ft | 133 kts | 61° |
| 2026-05-05 17:52 | 54.62202 | -6.34434 | 1678 ft | 129 kts | 57° |
| 2026-05-05 17:53 | 54.62639 | -6.33099 | 1454 ft | 128 kts | 55° |
| 2026-05-05 17:53 | 54.63030 | -6.31699 | 1234 ft | 128 kts | 59° |
| 2026-05-05 17:53 | 54.63401 | -6.30288 | 1064 ft | 130 kts | 59° |
| 2026-05-05 17:53 | 54.63786 | -6.28851 | 947 ft | 132 kts | 61° |
| 2026-05-05 17:54 | 54.64182 | -6.27427 | 779 ft | 131 kts | 58° |
| 2026-05-05 17:54 | 54.64568 | -6.25972 | 587 ft | 133 kts | 58° |
| 2026-05-05 17:54 | 54.64949 | -6.24557 | 394 ft | 131 kts | 59° |
| 2026-05-05 17:54 | 54.65330 | -6.23132 | 229 ft | 129 kts | 58° |
| 2026-05-05 17:55 | 54.65658 | -6.21929 | 231 ft | 88 kts | 65° |
| 2026-05-05 17:55 | 54.65848 | -6.21218 | 240 ft | 50 kts | 65° |
| 2026-05-05 17:55 | 54.65986 | -6.20707 | 247 ft | 44 kts | 65° |
| 2026-05-05 17:55 | 54.66108 | -6.20251 | 258 ft | 40 kts | 65° |
| 2026-05-05 17:56 | 54.66221 | -6.19832 | 262 ft | 37 kts | 65° |
| 2026-05-05 17:56 | 54.66286 | -6.19653 | 264 ft | 10 kts | 9° |
| 2026-05-05 17:56 | 54.66354 | -6.19699 | 264 ft | 11 kts | 333° |
| 2026-05-05 17:56 | 54.66397 | -6.19815 | 263 ft | 13 kts | 275° |
| 2026-05-05 17:57 | 54.66364 | -6.19977 | 261 ft | 16 kts | 245° |
| 2026-05-05 17:57 | 54.66315 | -6.20159 | 258 ft | 18 kts | 245° |
| 2026-05-05 17:57 | 54.66259 | -6.20365 | 256 ft | 20 kts | 245° |
| 2026-05-05 17:57 | 54.66198 | -6.20595 | 252 ft | 22 kts | 245° |
| 2026-05-05 17:58 | 54.66132 | -6.20837 | 249 ft | 21 kts | 245° |
| 2026-05-05 17:58 | 54.66074 | -6.21054 | 246 ft | 19 kts | 245° |
| 2026-05-05 17:58 | 54.66049 | -6.21187 | 244 ft | 9 kts | 292° |
| 2026-05-05 17:58 | 54.66108 | -6.21242 | 243 ft | 11 kts | 335° |
| 2026-05-05 17:59 | 54.66158 | -6.21289 | 243 ft | 5 kts | 310° |
| 2026-05-05 17:59 | 54.66155 | -6.21341 | 242 ft | 5 kts | 246° |
| 2026-05-05 17:59 | 54.66145 | -6.21379 | 241 ft | 0 kts | 244° |